Marietta, SC

2:23 PM EDT on August 27, 2016 (GMT -0400)
Highway 11 | | Change Station

Elev 1345 ft 35.09 °N, 82.49 °W | Updated 25 seconds ago

Scattered Clouds
Scattered Clouds
96.1 °F
Feels Like 115 °F
N
0.0
Wind Variable Wind from SSE
Gusts 1.0 mph

Today
High -- | Low -- °F
--% Chance of Precip.
Yesterday
High -- | Low -- °F
Precip. -- in
Pressure 30.12 in
Visibility 10.0 miles
Clouds Few 4200 ft
Few 5500 ft
Scattered Clouds 7000 ft
Heat Index 115 °F
Dew Point 79 °F
Humidity 58%
Rainfall 0.00 in
Snow Depth Not available.
6:59 AM 8:02 PM
Waning Crescent, 22% visible
METAR KGMU 271753Z 11008KT 10SM FEW042 FEW055 SCT070 33/21 A3015 RMK AO2 SLP198 T03280206 10333 20256 58003
Pressure 30.12 in
Visibility 10.0 miles
Clouds Few 4200 ft
Few 5500 ft
Scattered Clouds 7000 ft
Heat Index 115 °F
Dew Point 79 °F
Humidity 58%
Rainfall 0.00 in
Snow Depth Not available.
6:59 AM 8:02 PM
Waning Crescent, 22% visible
METAR KGMU 271753Z 11008KT 10SM FEW042 FEW055 SCT070 33/21 A3015 RMK AO2 SLP198 T03280206 10333 20256 58003

10-Day Weather Forecast

Almanac

Astronomy

Aug. 27, 2016 Rise Set
Actual Time
Civil Twilight
Nautical Twilight
Astronomical Twilight
Moon
Length of Visible Light
Length of Day
Tomorrow will be .
, % of the Moon is Illuminated

Today's Extremes

State Highs State Lows

Community

WunderPhotos

Upload Photos

1,935,396 photos uploaded!

WunderBlog® & News

Nearby

Air Quality

  Air Quality AQ Index Pollutant
Not available.

Snow Depth

Station Depth Elevation

Earthquake Activity

City Distance Mag. Time & Date
Minimum magnitude displayed is 2.5.

Coastal Water Temperatures

Place Temperature

Stations

Nearby Weather Stations

Station Location Temp. Windchill Dew Point Humidity Wind Precip. Elev Updated Type
                   

Watches & Warnings

There are currently no watches in effect.